createdAt,value
2023-05-22T00:00:37.471Z,7.60
2023-05-22T00:01:37.182Z,7.62
2023-05-22T00:02:37.249Z,7.65
2023-05-22T00:03:37.289Z,7.77
2023-05-22T00:04:37.200Z,7.84
2023-05-22T00:05:37.251Z,7.90
2023-05-22T00:06:37.214Z,7.90
2023-05-22T00:07:37.230Z,7.86
2023-05-22T00:08:37.233Z,7.80
2023-05-22T00:09:37.312Z,7.88
2023-05-22T00:10:37.591Z,7.73
2023-05-22T00:11:37.457Z,7.54
2023-05-22T00:12:37.626Z,7.43
2023-05-22T00:13:37.635Z,7.74
2023-05-22T00:14:37.672Z,7.90
2023-05-22T00:15:37.748Z,7.84
2023-05-22T00:16:37.855Z,8.06
2023-05-22T00:17:38.018Z,7.96
2023-05-22T00:18:37.969Z,7.81
2023-05-22T00:19:38.105Z,7.53
2023-05-22T00:20:38.230Z,7.82
2023-05-22T00:21:38.201Z,7.80
2023-05-22T00:22:38.253Z,7.81
2023-05-22T00:23:38.207Z,7.85
2023-05-22T00:24:38.205Z,7.97
2023-05-22T00:25:38.216Z,8.08
2023-05-22T00:26:38.214Z,7.95
2023-05-22T00:27:38.245Z,8.22
2023-05-22T00:28:38.235Z,7.92
2023-05-22T00:29:38.259Z,7.65
2023-05-22T00:30:38.589Z,7.69
2023-05-22T00:31:38.372Z,7.85
2023-05-22T00:32:38.396Z,7.86
2023-05-22T00:33:38.384Z,7.70
2023-05-22T00:34:38.457Z,7.70
2023-05-22T00:35:38.374Z,7.89
2023-05-22T00:36:38.372Z,7.94
2023-05-22T00:37:38.403Z,7.80
2023-05-22T00:38:38.394Z,7.87
2023-05-22T00:39:38.407Z,7.86
2023-05-22T00:40:38.694Z,7.77
2023-05-22T00:41:38.570Z,8.32
2023-05-22T00:42:38.553Z,8.32
2023-05-22T00:43:38.578Z,8.32
2023-05-22T00:44:38.543Z,8.14
2023-05-22T00:45:38.548Z,8.21
2023-05-22T00:46:38.661Z,7.93
2023-05-22T00:47:38.592Z,8.08
2023-05-22T00:48:38.569Z,8.29
2023-05-22T00:49:38.600Z,8.08
2023-05-22T00:50:38.838Z,8.24
2023-05-22T00:51:38.722Z,8.35
2023-05-22T00:52:38.802Z,8.15
2023-05-22T00:53:38.871Z,7.93
2023-05-22T00:54:38.870Z,7.95
2023-05-22T00:55:38.873Z,8.03
2023-05-22T00:56:38.871Z,8.04
2023-05-22T00:57:38.881Z,8.20
2023-05-22T00:58:38.878Z,8.15
2023-05-22T00:59:38.878Z,8.52
2023-05-22T01:00:39.042Z,8.40
2023-05-22T01:01:38.929Z,8.72
2023-05-22T01:02:38.972Z,8.49
2023-05-22T01:03:39.088Z,8.31
2023-05-22T01:04:39.087Z,8.22
2023-05-22T01:05:39.160Z,7.99
2023-05-22T01:06:39.223Z,8.01
2023-05-22T01:07:39.345Z,8.26
2023-05-22T01:08:39.376Z,8.26
2023-05-22T01:09:39.460Z,8.36
2023-05-22T01:10:39.677Z,8.45
2023-05-22T01:11:39.573Z,8.34
2023-05-22T01:12:39.643Z,8.11
2023-05-22T01:13:39.704Z,8.23
2023-05-22T01:14:39.766Z,8.48
2023-05-22T01:15:39.844Z,8.27
2023-05-22T01:16:39.950Z,8.02
2023-05-22T01:17:40.122Z,8.06
2023-05-22T01:18:40.041Z,7.94
2023-05-22T01:19:40.098Z,8.04
2023-05-22T01:20:40.390Z,8.32
2023-05-22T01:21:40.245Z,8.42
2023-05-22T01:22:40.328Z,8.46
2023-05-22T01:23:40.396Z,8.32
2023-05-22T01:24:40.455Z,8.08
2023-05-22T01:25:40.538Z,8.12
2023-05-22T01:26:40.607Z,8.26
2023-05-22T01:27:40.676Z,8.08
2023-05-22T01:28:40.728Z,7.90
2023-05-22T01:29:40.785Z,8.23
2023-05-22T01:30:41.008Z,8.37
2023-05-22T01:31:40.890Z,8.23
2023-05-22T01:32:41.027Z,8.22
2023-05-22T01:33:41.063Z,8.30
2023-05-22T01:34:41.019Z,8.44
2023-05-22T01:35:41.078Z,8.46
2023-05-22T01:36:41.149Z,8.33
2023-05-22T01:37:41.248Z,8.53
2023-05-22T01:38:41.296Z,8.47
2023-05-22T01:39:41.366Z,8.53
2023-05-22T01:40:41.485Z,8.37
2023-05-22T01:41:41.518Z,8.18
2023-05-22T01:42:41.574Z,8.22
2023-05-22T01:43:41.661Z,8.25
2023-05-22T01:44:41.728Z,8.55
2023-05-22T01:45:41.865Z,8.61
2023-05-22T01:46:41.885Z,8.55
2023-05-22T01:47:41.979Z,8.29
2023-05-22T01:48:42.027Z,8.49
2023-05-22T01:49:42.080Z,8.57
2023-05-22T01:50:42.253Z,8.32
2023-05-22T01:51:42.188Z,8.35
2023-05-22T01:52:42.286Z,8.13
2023-05-22T01:53:42.355Z,8.16
2023-05-22T01:54:42.435Z,8.15
2023-05-22T01:55:42.498Z,8.07
2023-05-22T01:56:42.509Z,8.09
2023-05-22T01:57:42.524Z,8.15
2023-05-22T01:58:42.509Z,8.29
2023-05-22T01:59:42.536Z,8.36
2023-05-22T02:00:42.992Z,8.42
2023-05-22T02:01:42.641Z,8.28
2023-05-22T02:02:42.641Z,8.31
2023-05-22T02:03:42.606Z,8.52
2023-05-22T02:04:42.594Z,8.26
2023-05-22T02:05:42.654Z,8.29
2023-05-22T02:06:42.714Z,8.14
2023-05-22T02:07:42.801Z,8.19
2023-05-22T02:08:42.831Z,8.21
2023-05-22T02:09:42.906Z,8.03
2023-05-22T02:10:42.966Z,8.07
2023-05-22T02:11:43.037Z,8.29
2023-05-22T02:12:43.085Z,8.26
2023-05-22T02:13:43.132Z,8.18
2023-05-22T02:14:43.180Z,8.02
2023-05-22T02:15:43.280Z,8.28
2023-05-22T02:16:43.300Z,8.25
2023-05-22T02:17:43.375Z,8.30
2023-05-22T02:18:43.647Z,8.35
2023-05-22T02:19:43.434Z,8.25
2023-05-22T02:20:43.598Z,8.10
2023-05-22T02:21:43.553Z,8.35
2023-05-22T02:22:43.653Z,8.29
2023-05-22T02:23:43.714Z,8.35
2023-05-22T02:24:43.696Z,8.34
2023-05-22T02:25:43.717Z,8.57
2023-05-22T02:26:43.756Z,8.71
2023-05-22T02:27:43.842Z,8.62
2023-05-22T02:28:43.907Z,8.25
2023-05-22T02:29:43.948Z,8.02
2023-05-22T02:30:43.957Z,8.30
2023-05-22T02:31:43.994Z,8.23
2023-05-22T02:32:44.099Z,8.33
2023-05-22T02:33:44.044Z,8.21
2023-05-22T02:34:44.075Z,8.37
2023-05-22T02:35:44.134Z,8.30
2023-05-22T02:36:44.171Z,8.15
2023-05-22T02:37:44.201Z,8.17
2023-05-22T02:38:44.182Z,8.23
2023-05-22T02:39:44.189Z,8.33
2023-05-22T02:40:44.197Z,8.44
2023-05-22T02:41:44.193Z,8.56
2023-05-22T02:42:44.216Z,8.61
2023-05-22T02:43:44.219Z,8.46
2023-05-22T02:44:44.218Z,8.43
2023-05-22T02:45:44.228Z,8.46
2023-05-22T02:46:44.253Z,8.08
2023-05-22T02:47:44.297Z,7.97
2023-05-22T02:48:44.264Z,8.21
2023-05-22T02:49:44.264Z,8.21
2023-05-22T02:50:44.313Z,7.99
2023-05-22T02:51:44.282Z,8.07
2023-05-22T02:52:44.293Z,8.15
2023-05-22T02:53:44.333Z,8.16
2023-05-22T02:54:44.344Z,8.17
2023-05-22T02:55:44.345Z,8.18
2023-05-22T02:56:44.348Z,8.20
2023-05-22T02:57:44.361Z,8.34
2023-05-22T02:58:44.370Z,8.36
2023-05-22T02:59:44.385Z,8.21
2023-05-22T03:00:44.386Z,8.30
2023-05-22T03:01:44.485Z,8.12
2023-05-22T03:02:44.562Z,8.06
2023-05-22T03:03:44.444Z,7.95
2023-05-22T03:04:44.401Z,8.12
2023-05-22T03:05:44.399Z,8.27
2023-05-22T03:06:44.414Z,8.34
2023-05-22T03:07:46.021Z,7.90
2023-05-22T03:08:44.420Z,7.93
2023-05-22T03:09:44.450Z,7.95
2023-05-22T03:10:44.463Z,8.02
2023-05-22T03:11:44.470Z,8.13
2023-05-22T03:12:44.494Z,8.11
2023-05-22T03:13:44.475Z,7.93
2023-05-22T03:14:44.501Z,8.14
2023-05-22T03:15:44.497Z,8.14
2023-05-22T03:16:44.671Z,8.27
2023-05-22T03:17:44.570Z,8.01
2023-05-22T03:18:44.570Z,7.93
2023-05-22T03:19:44.549Z,8.06
2023-05-22T03:20:44.563Z,7.99
2023-05-22T03:21:44.701Z,7.95
2023-05-22T03:22:44.604Z,8.17
2023-05-22T03:23:44.610Z,8.09
2023-05-22T03:24:44.604Z,8.17
2023-05-22T03:25:44.666Z,8.12
2023-05-22T03:26:44.635Z,8.20
2023-05-22T03:27:44.662Z,8.42
2023-05-22T03:28:44.672Z,8.28
2023-05-22T03:29:44.664Z,8.21
2023-05-22T03:30:44.672Z,8.30
2023-05-22T03:31:44.689Z,8.06
2023-05-22T03:32:44.732Z,8.02
2023-05-22T03:33:44.759Z,8.03
2023-05-22T03:34:44.725Z,7.79
2023-05-22T03:35:44.723Z,7.84
2023-05-22T03:36:44.721Z,7.78
2023-05-22T03:37:44.746Z,8.02
2023-05-22T03:38:44.756Z,7.93
2023-05-22T03:39:44.755Z,8.01
2023-05-22T03:40:44.800Z,7.75
2023-05-22T03:41:44.755Z,7.63
2023-05-22T03:42:44.770Z,8.05
2023-05-22T03:43:45.207Z,8.05
2023-05-22T03:44:44.791Z,7.74
2023-05-22T03:45:44.836Z,7.80
2023-05-22T03:46:44.818Z,7.81
2023-05-22T03:47:44.932Z,8.00
2023-05-22T03:48:44.832Z,7.79
2023-05-22T03:49:44.839Z,7.58
2023-05-22T03:50:44.854Z,7.57
2023-05-22T03:51:44.863Z,7.48
2023-05-22T03:52:44.903Z,7.55
2023-05-22T03:53:44.906Z,7.55
2023-05-22T03:54:44.905Z,7.50
2023-05-22T03:55:44.900Z,7.53
2023-05-22T03:56:44.952Z,7.40
2023-05-22T03:57:44.926Z,7.56
2023-05-22T03:58:44.941Z,7.49
2023-05-22T03:59:44.954Z,7.56
2023-05-22T04:00:44.972Z,7.65
2023-05-22T04:01:45.006Z,7.85
2023-05-22T04:02:45.378Z,7.79
2023-05-22T04:03:45.123Z,7.69
2023-05-22T04:04:45.058Z,7.37
2023-05-22T04:05:45.008Z,7.56
2023-05-22T04:06:45.023Z,7.57
2023-05-22T04:07:45.043Z,7.52
2023-05-22T04:08:45.049Z,7.56
2023-05-22T04:09:45.107Z,7.63
2023-05-22T04:10:45.066Z,7.74
2023-05-22T04:11:45.082Z,7.75
2023-05-22T04:12:45.091Z,7.62
2023-05-22T04:13:45.099Z,7.78
2023-05-22T04:14:45.119Z,7.61
2023-05-22T04:15:45.157Z,7.69
2023-05-22T04:16:45.136Z,7.64
2023-05-22T04:17:45.163Z,7.59
2023-05-22T04:18:45.221Z,7.46
2023-05-22T04:19:45.171Z,7.34
2023-05-22T04:20:45.169Z,7.60
2023-05-22T04:21:45.179Z,7.55
2023-05-22T04:22:45.201Z,7.60
2023-05-22T04:23:45.207Z,7.39
2023-05-22T04:24:45.299Z,7.57
2023-05-22T04:25:45.258Z,7.50
2023-05-22T04:26:45.265Z,7.35
2023-05-22T04:27:45.281Z,7.37
2023-05-22T04:28:45.354Z,7.31
2023-05-22T04:29:45.282Z,7.27
2023-05-22T04:30:45.300Z,7.45
2023-05-22T04:31:45.358Z,7.46
2023-05-22T04:32:45.372Z,7.49
2023-05-22T04:33:45.324Z,7.48
2023-05-22T04:34:45.322Z,7.41
2023-05-22T04:35:45.336Z,7.43
2023-05-22T04:36:45.502Z,7.50
2023-05-22T04:37:45.353Z,7.49
2023-05-22T04:38:45.369Z,7.35
2023-05-22T04:39:45.389Z,7.41
2023-05-22T04:40:45.378Z,7.47
2023-05-22T04:41:45.368Z,7.56
2023-05-22T04:42:45.400Z,7.54
2023-05-22T04:43:45.392Z,7.41
2023-05-22T04:44:45.411Z,7.46
2023-05-22T04:45:45.468Z,7.30
2023-05-22T04:46:45.438Z,7.35
2023-05-22T04:47:45.521Z,7.15
2023-05-22T04:48:45.451Z,7.25
2023-05-22T04:49:45.443Z,7.09
2023-05-22T04:50:45.455Z,7.18
2023-05-22T04:51:45.465Z,7.39
2023-05-22T04:52:45.473Z,7.18
2023-05-22T04:53:45.495Z,6.83
2023-05-22T04:54:45.493Z,6.90
2023-05-22T04:55:45.510Z,7.05
2023-05-22T04:56:45.515Z,7.16
2023-05-22T04:57:45.536Z,7.12
2023-05-22T04:58:45.543Z,7.10
2023-05-22T04:59:45.568Z,7.04
2023-05-22T05:00:45.711Z,7.00
2023-05-22T05:01:45.672Z,7.01
2023-05-22T05:02:45.644Z,6.83
2023-05-22T05:03:45.715Z,6.83
2023-05-22T05:04:45.626Z,6.99
2023-05-22T05:05:45.631Z,6.85
2023-05-22T05:06:45.656Z,6.96
2023-05-22T05:07:47.182Z,6.90
2023-05-22T05:08:45.671Z,6.91
2023-05-22T05:09:45.716Z,6.93
2023-05-22T05:10:45.697Z,6.94
2023-05-22T05:11:45.712Z,6.89
2023-05-22T05:12:45.755Z,6.71
2023-05-22T05:13:45.737Z,6.85
2023-05-22T05:14:45.743Z,6.72
2023-05-22T05:15:45.758Z,6.76
2023-05-22T05:16:45.790Z,6.65
2023-05-22T05:17:45.849Z,6.58
2023-05-22T05:18:45.814Z,6.48
2023-05-22T05:19:45.782Z,6.61
2023-05-22T05:20:45.807Z,6.59
2023-05-22T05:21:45.820Z,6.62
2023-05-22T05:22:45.831Z,6.57
2023-05-22T05:23:45.922Z,6.71
2023-05-22T05:24:45.860Z,6.66
2023-05-22T05:25:45.868Z,6.65
2023-05-22T05:26:45.874Z,6.62
2023-05-22T05:27:45.908Z,6.45
2023-05-22T05:28:45.984Z,6.56
2023-05-22T05:29:45.890Z,6.56
2023-05-22T05:30:45.913Z,6.62
2023-05-22T05:31:45.973Z,6.57
2023-05-22T05:32:45.989Z,6.53
2023-05-22T05:33:45.950Z,6.42
2023-05-22T05:34:45.976Z,6.60
2023-05-22T05:35:45.996Z,6.84
2023-05-22T05:36:46.012Z,7.18
2023-05-22T05:37:46.017Z,7.63
2023-05-22T05:38:46.969Z,8.01
2023-05-22T05:39:46.042Z,8.37
2023-05-22T05:40:46.112Z,8.67
2023-05-22T05:41:46.202Z,9.58
2023-05-22T05:42:46.262Z,10.67
2023-05-22T05:43:46.254Z,10.72
2023-05-22T05:44:46.265Z,11.05
2023-05-22T05:45:46.332Z,11.85
2023-05-22T05:46:46.305Z,13.60
2023-05-22T05:47:46.493Z,17.12
2023-05-22T05:48:46.311Z,18.71
2023-05-22T05:49:46.342Z,19.74
2023-05-22T05:50:46.371Z,21.10
2023-05-22T05:51:46.317Z,21.76
2023-05-22T05:52:46.390Z,23.28
2023-05-22T05:53:46.430Z,23.96
2023-05-22T05:54:46.555Z,24.14
2023-05-22T05:55:46.536Z,24.87
2023-05-22T05:56:46.570Z,26.81
2023-05-22T05:57:46.667Z,27.86
2023-05-22T05:58:46.683Z,29.43
2023-05-22T05:59:46.713Z,31.07
2023-05-22T06:00:46.725Z,32.62
2023-05-22T06:01:46.711Z,32.71
2023-05-22T06:02:49.589Z,33.18
2023-05-22T06:03:46.898Z,32.83
2023-05-22T06:04:46.808Z,33.67
2023-05-22T06:05:46.747Z,35.58
2023-05-22T06:06:46.731Z,38.37
2023-05-22T06:07:46.756Z,43.70
2023-05-22T06:08:46.791Z,46.19
2023-05-22T06:09:46.757Z,46.45
2023-05-22T06:10:46.687Z,46.59
2023-05-22T06:11:46.782Z,47.13
2023-05-22T06:12:46.736Z,48.29
2023-05-22T06:13:46.759Z,49.64
2023-05-22T06:14:46.662Z,52.31
2023-05-22T06:15:46.706Z,54.86
2023-05-22T06:16:46.692Z,55.17
2023-05-22T06:17:46.989Z,56.51
2023-05-22T06:18:46.697Z,59.29
2023-05-22T06:19:46.623Z,60.36
2023-05-22T06:20:46.860Z,62.65
2023-05-22T06:21:46.649Z,65.71
2023-05-22T06:22:46.606Z,65.82
2023-05-22T06:23:46.605Z,66.06
2023-05-22T06:24:46.607Z,67.61
2023-05-22T06:25:46.606Z,69.41
2023-05-22T06:26:46.583Z,70.29
2023-05-22T06:27:46.580Z,68.22
2023-05-22T06:28:46.590Z,71.36
2023-05-22T06:29:46.587Z,70.70
2023-05-22T06:30:46.760Z,68.68
2023-05-22T06:31:46.660Z,69.03
2023-05-22T06:32:46.832Z,72.19
2023-05-22T06:33:46.731Z,72.69
2023-05-22T06:34:46.516Z,70.83
2023-05-22T06:35:46.513Z,73.34
2023-05-22T06:36:46.491Z,69.03
2023-05-22T06:37:46.501Z,67.83
2023-05-22T06:38:46.496Z,67.93
2023-05-22T06:39:46.565Z,68.18
2023-05-22T06:40:46.468Z,69.74
2023-05-22T06:41:46.468Z,71.47
2023-05-22T06:42:46.572Z,89.48
2023-05-22T06:43:46.436Z,102.57
2023-05-22T06:44:46.558Z,94.04
2023-05-22T06:45:46.468Z,93.42
2023-05-22T06:46:46.400Z,106.74
2023-05-22T06:47:46.495Z,103.17
2023-05-22T06:48:46.492Z,98.85
2023-05-22T06:49:46.386Z,95.75
2023-05-22T06:50:46.341Z,97.61
2023-05-22T06:51:46.359Z,97.49
2023-05-22T06:52:46.329Z,96.71
2023-05-22T06:53:46.310Z,95.34
2023-05-22T06:54:46.395Z,102.59
2023-05-22T06:55:46.280Z,106.01
2023-05-22T06:56:46.279Z,106.52
2023-05-22T06:57:46.258Z,108.58
2023-05-22T06:58:46.246Z,112.16
2023-05-22T06:59:46.274Z,113.35
2023-05-22T07:00:46.218Z,129.88
2023-05-22T07:01:46.253Z,139.36
2023-05-22T07:02:46.312Z,145.62
2023-05-22T07:03:46.363Z,137.11
2023-05-22T07:04:46.168Z,139.07
2023-05-22T07:05:46.287Z,141.14
2023-05-22T07:06:46.129Z,143.28
2023-05-22T07:07:46.231Z,143.17
2023-05-22T07:08:46.100Z,197.59
2023-05-22T07:09:46.089Z,196.47
2023-05-22T07:10:46.072Z,188.70
2023-05-22T07:11:46.065Z,180.78
2023-05-22T07:12:46.067Z,174.30
2023-05-22T07:13:46.039Z,178.72
2023-05-22T07:14:46.064Z,175.82
2023-05-22T07:15:46.565Z,173.63
2023-05-22T07:16:46.125Z,166.36
2023-05-22T07:17:46.040Z,160.22
2023-05-22T07:18:46.131Z,160.32
2023-05-22T07:19:45.972Z,160.53
2023-05-22T07:20:45.950Z,153.44
2023-05-22T07:21:45.991Z,147.71
2023-05-22T07:22:45.944Z,133.40
2023-05-22T07:23:45.961Z,123.28
2023-05-22T07:24:46.036Z,117.31
2023-05-22T07:25:45.914Z,113.53
2023-05-22T07:26:45.892Z,111.83
2023-05-22T07:27:45.883Z,109.37
2023-05-22T07:28:45.888Z,107.69
2023-05-22T07:29:45.857Z,107.33
2023-05-22T07:30:45.852Z,105.92
2023-05-22T07:31:45.849Z,104.86
2023-05-22T07:32:45.844Z,99.69
2023-05-22T07:33:45.810Z,97.03
2023-05-22T07:34:45.804Z,89.38
2023-05-22T07:35:45.802Z,89.46
2023-05-22T07:36:45.938Z,89.66
2023-05-22T07:37:45.768Z,83.23
2023-05-22T07:38:45.733Z,81.28
2023-05-22T07:39:45.733Z,77.20
2023-05-22T07:40:46.333Z,74.68
2023-05-22T07:41:45.688Z,74.48
2023-05-22T07:42:45.688Z,73.81
2023-05-22T07:43:45.674Z,69.25
2023-05-22T07:44:45.637Z,64.69
2023-05-22T07:45:45.678Z,60.02
2023-05-22T07:46:45.662Z,60.50
2023-05-22T07:47:45.663Z,56.48
2023-05-22T07:48:45.612Z,54.34
2023-05-22T07:49:45.581Z,51.33
2023-05-22T07:50:45.599Z,49.94
2023-05-22T07:51:45.602Z,46.79
2023-05-22T07:52:45.597Z,45.37
2023-05-22T07:53:45.586Z,42.66
2023-05-22T07:54:45.920Z,39.93
2023-05-22T07:55:45.564Z,37.83
2023-05-22T07:56:45.757Z,35.32
2023-05-22T07:57:45.569Z,34.72
2023-05-22T07:58:45.526Z,34.66
2023-05-22T07:59:45.548Z,34.46
2023-05-22T08:00:45.548Z,33.31
2023-05-22T08:01:45.576Z,31.56
2023-05-22T08:02:45.734Z,29.19
2023-05-22T08:03:45.701Z,29.00
2023-05-22T08:04:45.585Z,28.40
2023-05-22T08:05:45.864Z,26.84
2023-05-22T08:06:46.501Z,26.08
2023-05-22T08:07:46.029Z,25.30
2023-05-22T08:08:45.656Z,25.98
2023-05-22T08:09:45.681Z,24.36
2023-05-22T08:11:02.613Z,24.36
2023-05-22T08:11:46.711Z,23.95
2023-05-22T08:12:45.696Z,24.23
2023-05-22T08:13:45.660Z,22.67
2023-05-22T08:14:45.669Z,22.11
2023-05-22T08:15:45.631Z,20.43
2023-05-22T08:16:45.630Z,19.64
2023-05-22T08:17:45.642Z,19.22
2023-05-22T08:18:45.613Z,18.82
2023-05-22T08:19:45.652Z,17.90
2023-05-22T08:20:45.535Z,17.23
2023-05-22T08:21:45.506Z,16.70
2023-05-22T08:22:45.505Z,16.76
2023-05-22T08:23:45.497Z,16.75
2023-05-22T08:24:45.471Z,16.90
2023-05-22T08:25:45.440Z,16.90
2023-05-22T08:26:45.434Z,17.51
2023-05-22T08:27:45.519Z,17.00
2023-05-22T08:28:45.375Z,17.01
2023-05-22T08:29:45.384Z,16.19
2023-05-22T08:30:45.347Z,15.75
2023-05-22T08:31:45.542Z,15.85
2023-05-22T08:32:45.515Z,17.61
2023-05-22T08:33:45.382Z,17.69
2023-05-22T08:34:45.398Z,17.34
2023-05-22T08:35:45.407Z,15.55
2023-05-22T08:36:45.391Z,13.94
2023-05-22T08:37:45.396Z,12.50
2023-05-22T08:38:45.354Z,11.56
2023-05-22T08:39:45.360Z,10.48
2023-05-22T08:40:46.460Z,9.51
2023-05-22T08:41:45.325Z,8.82
2023-05-22T08:42:45.295Z,7.50
2023-05-22T08:43:45.475Z,6.91
2023-05-22T08:44:45.518Z,6.53
2023-05-22T08:45:46.210Z,6.01
2023-05-22T08:46:45.670Z,5.53
2023-05-22T08:47:45.627Z,5.61
2023-05-22T08:48:45.268Z,5.19
2023-05-22T08:49:45.210Z,4.80
2023-05-22T08:50:45.210Z,4.49
2023-05-22T08:51:45.243Z,4.12
2023-05-22T08:52:45.170Z,3.88
2023-05-22T08:53:45.177Z,3.83
2023-05-22T08:54:46.063Z,3.48
2023-05-22T08:55:45.213Z,3.41
2023-05-22T08:56:55.781Z,3.25
2023-05-22T08:57:46.592Z,3.25
2023-05-22T08:58:45.076Z,3.00
2023-05-22T08:59:45.080Z,3.03
2023-05-22T09:00:45.169Z,2.94
2023-05-22T09:01:45.143Z,2.93
2023-05-22T09:02:45.065Z,2.92
2023-05-22T09:03:45.124Z,2.84
2023-05-22T09:04:44.982Z,2.75
2023-05-22T09:05:45.006Z,2.60
2023-05-22T09:06:44.992Z,2.47
2023-05-22T09:07:45.103Z,2.44
2023-05-22T09:08:44.945Z,2.48
2023-05-22T09:09:45.019Z,2.40
2023-05-22T09:10:44.940Z,2.43
2023-05-22T09:11:45.553Z,2.47
2023-05-22T09:12:44.903Z,2.29
2023-05-22T09:13:44.906Z,2.30
2023-05-22T09:14:44.896Z,2.31
2023-05-22T09:15:44.949Z,2.33
2023-05-22T09:16:45.062Z,2.37
2023-05-22T09:17:45.618Z,2.38
2023-05-22T09:18:44.868Z,2.38
2023-05-22T09:19:44.834Z,2.22
2023-05-22T09:20:44.779Z,2.27
2023-05-22T09:21:44.761Z,2.24
2023-05-22T09:22:44.749Z,2.28
2023-05-22T09:23:44.703Z,2.18
2023-05-22T09:24:44.687Z,2.12
2023-05-22T09:25:44.686Z,2.07
2023-05-22T09:26:44.658Z,2.14
2023-05-22T09:27:44.663Z,2.01
2023-05-22T09:28:44.680Z,1.90
2023-05-22T09:29:44.658Z,1.91
2023-05-22T09:30:44.661Z,1.93
2023-05-22T09:31:44.932Z,1.92
2023-05-22T09:32:44.766Z,1.91
2023-05-22T09:33:44.568Z,2.05
2023-05-22T09:34:44.554Z,2.02
2023-05-22T09:35:44.534Z,1.79
2023-05-22T09:36:44.520Z,1.74
2023-05-22T09:37:44.530Z,1.89
2023-05-22T09:38:44.580Z,2.07
2023-05-22T09:39:44.514Z,2.07
2023-05-22T09:40:44.540Z,2.18
2023-05-22T09:41:44.522Z,2.21
2023-05-22T09:42:44.455Z,2.68
2023-05-22T09:43:44.434Z,2.96
2023-05-22T09:44:44.566Z,3.38
2023-05-22T09:45:44.381Z,4.02
2023-05-22T09:46:44.492Z,4.06
2023-05-22T09:47:44.363Z,4.07
2023-05-22T09:48:44.311Z,4.28
2023-05-22T09:49:44.291Z,4.74
2023-05-22T09:50:44.297Z,5.68
2023-05-22T09:51:44.229Z,7.18
2023-05-22T09:52:44.250Z,7.84
2023-05-22T09:53:44.200Z,8.23
2023-05-22T09:54:44.235Z,8.95
2023-05-22T09:55:44.278Z,9.22
2023-05-22T09:56:44.372Z,9.26
2023-05-22T09:57:44.286Z,9.39
2023-05-22T09:58:44.205Z,9.79
2023-05-22T09:59:44.190Z,10.50
2023-05-22T10:00:44.144Z,9.31
2023-05-22T10:01:44.169Z,9.69
2023-05-22T10:02:44.180Z,10.42
2023-05-22T10:03:44.125Z,11.83
2023-05-22T10:04:44.209Z,9.38
2023-05-22T10:05:44.018Z,9.90
2023-05-22T10:06:44.018Z,10.90
2023-05-22T10:07:44.012Z,12.54
2023-05-22T10:08:44.661Z,15.55
2023-05-22T10:09:44.007Z,15.88
2023-05-22T10:10:43.919Z,15.90
2023-05-22T10:11:43.904Z,15.88
2023-05-22T10:12:43.886Z,15.35
2023-05-22T10:13:43.879Z,13.27
2023-05-22T10:14:43.833Z,7.53
2023-05-22T10:15:43.837Z,8.09
2023-05-22T10:16:43.768Z,9.32
2023-05-22T10:17:43.840Z,9.64
2023-05-22T10:18:43.799Z,8.65
2023-05-22T10:19:44.748Z,9.56
2023-05-22T10:20:43.830Z,4.69
2023-05-22T10:21:43.699Z,5.93
2023-05-22T10:22:43.686Z,5.68
2023-05-22T10:23:43.649Z,4.62
2023-05-22T10:24:44.627Z,5.23
2023-05-22T10:25:43.644Z,5.28
2023-05-22T10:26:43.572Z,4.53
2023-05-22T10:27:43.521Z,4.23
2023-05-22T10:28:43.714Z,3.59
2023-05-22T10:29:43.550Z,3.72
2023-05-22T10:30:43.495Z,3.60
2023-05-22T10:31:43.371Z,3.04
2023-05-22T10:32:43.435Z,3.58
2023-05-22T10:33:43.334Z,3.60
2023-05-22T10:34:44.071Z,3.75
2023-05-22T10:35:43.221Z,4.17
2023-05-22T10:36:43.700Z,4.87
2023-05-22T10:37:43.587Z,6.35
2023-05-22T10:38:43.146Z,7.06
2023-05-22T10:39:43.063Z,7.15
2023-05-22T10:40:43.107Z,7.66
2023-05-22T10:41:43.006Z,8.39
2023-05-22T10:42:42.970Z,8.44
2023-05-22T10:43:42.925Z,8.20
2023-05-22T10:44:42.891Z,8.25
2023-05-22T10:45:43.955Z,8.16
2023-05-22T10:46:42.885Z,7.51
2023-05-22T10:47:42.956Z,6.58
2023-05-22T10:48:42.857Z,5.71
2023-05-22T10:49:42.872Z,6.58
2023-05-22T10:50:42.905Z,7.83
2023-05-22T10:51:42.828Z,8.48
2023-05-22T10:52:42.937Z,8.88
2023-05-22T10:53:42.793Z,8.91
2023-05-22T10:54:42.894Z,8.33
2023-05-22T10:55:42.798Z,7.97
2023-05-22T10:56:42.787Z,7.57
2023-05-22T10:57:42.768Z,7.29
2023-05-22T10:58:42.780Z,6.78
2023-05-22T10:59:42.778Z,6.62
2023-05-22T11:00:42.897Z,6.70
2023-05-22T11:01:42.799Z,6.55
2023-05-22T11:02:42.918Z,6.36
2023-05-22T11:03:42.743Z,6.00
2023-05-22T11:04:42.709Z,5.64
2023-05-22T11:05:42.614Z,5.48
2023-05-22T11:06:42.830Z,5.23
2023-05-22T11:07:42.565Z,4.91
2023-05-22T11:08:42.607Z,4.67
2023-05-22T11:09:42.481Z,4.01
2023-05-22T11:10:42.455Z,3.61
2023-05-22T11:11:43.104Z,3.36
2023-05-22T11:12:42.384Z,3.23
2023-05-22T11:13:42.374Z,2.99
2023-05-22T11:14:42.350Z,2.74
2023-05-22T11:15:42.286Z,2.72
2023-05-22T11:16:42.299Z,2.67
2023-05-22T11:17:42.355Z,2.65
2023-05-22T11:18:42.224Z,2.66
2023-05-22T11:19:42.317Z,2.64
2023-05-22T11:20:42.374Z,2.55
2023-05-22T11:21:42.121Z,2.45
2023-05-22T11:22:42.181Z,2.40
2023-05-22T11:23:42.160Z,2.36
2023-05-22T11:24:42.251Z,2.25
2023-05-22T11:25:42.200Z,2.24
2023-05-22T11:26:42.194Z,2.15
2023-05-22T11:27:42.206Z,2.09
2023-05-22T11:28:42.243Z,1.99
2023-05-22T11:29:42.246Z,1.95
2023-05-22T11:30:42.449Z,1.91
2023-05-22T11:31:42.477Z,1.89
2023-05-22T11:32:42.301Z,1.95
2023-05-22T11:33:42.295Z,1.95
2023-05-22T11:34:43.189Z,1.84
2023-05-22T11:35:42.309Z,1.74
2023-05-22T11:36:42.325Z,1.63
2023-05-22T11:37:42.409Z,1.61
2023-05-22T11:38:42.327Z,1.54
2023-05-22T11:39:42.295Z,1.47
2023-05-22T11:40:42.551Z,1.45
2023-05-22T11:41:42.227Z,1.41
2023-05-22T11:42:42.205Z,1.32
2023-05-22T11:43:42.181Z,1.32
2023-05-22T11:44:42.154Z,1.34
2023-05-22T11:45:42.123Z,1.28
2023-05-22T11:46:42.152Z,1.30
2023-05-22T11:47:42.138Z,1.30
2023-05-22T11:48:42.060Z,1.28
2023-05-22T11:49:41.997Z,1.26
2023-05-22T11:50:42.805Z,1.29
2023-05-22T11:51:41.951Z,1.34
2023-05-22T11:52:41.982Z,1.34
2023-05-22T11:53:41.901Z,1.35
2023-05-22T11:54:41.870Z,1.34
2023-05-22T11:55:41.825Z,1.35
2023-05-22T11:56:41.909Z,1.37
2023-05-22T11:57:41.792Z,1.36
2023-05-22T11:58:41.733Z,1.41
2023-05-22T11:59:41.707Z,1.36
2023-05-22T12:00:41.875Z,1.35
2023-05-22T12:01:41.674Z,1.36
2023-05-22T12:02:41.673Z,1.30
2023-05-22T12:03:41.677Z,1.27
2023-05-22T12:04:41.575Z,1.31
2023-05-22T12:05:41.574Z,1.24
2023-05-22T12:06:41.648Z,1.21
2023-05-22T12:07:41.608Z,1.19
2023-05-22T12:08:41.646Z,1.13
2023-05-22T12:09:41.693Z,1.12
2023-05-22T12:10:41.925Z,1.07
2023-05-22T12:11:41.711Z,1.04
2023-05-22T12:12:41.844Z,1.00
2023-05-22T12:13:41.762Z,0.98
2023-05-22T12:14:41.790Z,0.97
2023-05-22T12:15:41.832Z,0.92
2023-05-22T12:16:41.869Z,0.88
2023-05-22T12:17:41.878Z,0.89
2023-05-22T12:18:41.904Z,0.87
2023-05-22T12:19:41.923Z,0.82
2023-05-22T12:20:41.941Z,0.82
2023-05-22T12:21:42.049Z,0.83
2023-05-22T12:22:42.004Z,0.84
2023-05-22T12:23:42.048Z,0.82
2023-05-22T12:24:42.081Z,0.82
2023-05-22T12:25:42.054Z,0.82
2023-05-22T12:26:42.019Z,0.81
2023-05-22T12:27:41.985Z,0.80
2023-05-22T12:28:42.067Z,0.80
2023-05-22T12:29:41.944Z,0.75
2023-05-22T12:30:42.020Z,0.73
2023-05-22T12:31:41.961Z,0.72
2023-05-22T12:32:41.908Z,0.71
2023-05-22T12:33:41.833Z,0.69
2023-05-22T12:34:41.793Z,0.70
2023-05-22T12:35:41.756Z,0.71
2023-05-22T12:36:41.776Z,0.70
2023-05-22T12:37:41.713Z,0.68
2023-05-22T12:38:41.718Z,0.65
2023-05-22T12:39:41.695Z,0.64
2023-05-22T12:40:41.781Z,0.63
2023-05-22T12:41:41.758Z,0.60
2023-05-22T12:42:41.776Z,0.59
2023-05-22T12:43:41.818Z,0.59
2023-05-22T12:44:41.933Z,0.57
2023-05-22T12:45:41.848Z,0.58
2023-05-22T12:46:41.907Z,0.56
2023-05-22T12:47:41.965Z,0.54
2023-05-22T12:48:41.915Z,0.52
2023-05-22T12:49:41.957Z,0.50
2023-05-22T12:50:42.301Z,0.50
2023-05-22T12:51:41.991Z,0.50
2023-05-22T12:52:42.023Z,0.52
2023-05-22T12:53:42.071Z,0.51
2023-05-22T12:54:42.061Z,0.51
2023-05-22T12:55:42.098Z,0.50
2023-05-22T12:56:42.142Z,0.51
2023-05-22T12:57:42.164Z,0.50
2023-05-22T12:58:42.204Z,0.50
2023-05-22T12:59:42.202Z,0.51
2023-05-22T13:00:42.470Z,0.52
2023-05-22T13:01:42.314Z,0.50
2023-05-22T13:02:42.506Z,0.51
2023-05-22T13:03:42.343Z,0.51
2023-05-22T13:04:42.392Z,0.51
2023-05-22T13:05:42.500Z,0.51
2023-05-22T13:06:42.420Z,0.50
2023-05-22T13:07:42.455Z,0.52
2023-05-22T13:08:42.608Z,0.52
2023-05-22T13:09:42.564Z,0.51
2023-05-22T13:10:42.545Z,0.50